Time;durP1;ratioP1;P1;durP2;ratioP2;P2;SDS_P1;SDS_P2;PMS_P1;PMS_P2;Temp;Humidity;BMP_temperature;BMP_pressure;BME280_temperature;BME280_humidity;BME280_pressure;Samples;Min_cycle;Max_cycle;Signal;HPM_P1;HPM_P2
2024/01/17 00:01:58;;;;;;;6.97;3.08;;;0.60;99.90;;;;;;5040990;28;20037;-60
2024/01/17 00:04:24;;;;;;;6.43;2.85;;;0.50;99.90;;;;;;5058691;28;20067;-60
2024/01/17 00:06:50;;;;;;;7.75;3.55;;;0.50;99.90;;;;;;5058696;28;20505;-60
2024/01/17 00:09:17;;;;;;;7.40;2.63;;;0.40;99.90;;;;;;5040615;28;20079;-61
2024/01/17 00:11:42;;;;;;;8.40;3.45;;;0.20;99.90;;;;;;5041095;28;20053;-60
2024/01/17 00:14:09;;;;;;;9.52;3.28;;;0.10;99.90;;;;;;5059055;28;20395;-61
2024/01/17 00:16:35;;;;;;;8.02;2.88;;;0.40;99.90;;;;;;5057783;28;20424;-60
2024/01/17 00:19:00;;;;;;;13.65;3.40;;;0.20;99.90;;;;;;5059049;28;20041;-60
2024/01/17 00:21:27;;;;;;;8.57;3.50;;;0.40;99.90;;;;;;5058612;28;20091;-60
2024/01/17 00:23:53;;;;;;;7.97;2.67;;;0.10;99.90;;;;;;5058804;28;20072;-60
2024/01/17 00:26:18;;;;;;;8.52;3.38;;;0.30;99.90;;;;;;5058419;28;20037;-60
2024/01/17 00:28:44;;;;;;;7.88;3.15;;;0.40;99.90;;;;;;5057292;28;20055;-61
2024/01/17 00:31:10;;;;;;;8.48;3.35;;;0.30;99.90;;;;;;5058582;28;20041;-60
2024/01/17 00:33:35;;;;;;;7.65;3.05;;;0.00;99.90;;;;;;5058690;28;20124;-60
2024/01/17 00:36:02;;;;;;;9.02;3.13;;;0.10;99.90;;;;;;5040134;28;20068;-60
2024/01/17 00:38:28;;;;;;;8.85;3.30;;;0.10;99.90;;;;;;5058495;28;20517;-60
2024/01/17 00:40:53;;;;;;;9.40;3.50;;;0.00;99.90;;;;;;5056886;28;20052;-61
2024/01/17 00:43:20;;;;;;;10.90;3.67;;;0.10;99.90;;;;;;5039942;28;20041;-61
2024/01/17 00:45:45;;;;;;;8.80;3.28;;;0.30;99.90;;;;;;5058417;28;20048;-60
2024/01/17 00:48:13;;;;;;;8.77;3.50;;;0.10;99.90;;;;;;5058366;28;20045;-60
2024/01/17 00:50:39;;;;;;;10.77;3.65;;;0.40;99.90;;;;;;5058368;28;20051;-61
2024/01/17 00:53:05;;;;;;;7.72;3.95;;;0.30;99.90;;;;;;5058516;28;20041;-60
2024/01/17 00:55:31;;;;;;;10.85;4.18;;;0.20;99.90;;;;;;5058504;28;20128;-60
2024/01/17 00:57:57;;;;;;;12.23;5.28;;;0.00;99.90;;;;;;5058155;28;20099;-60
2024/01/17 01:00:23;;;;;;;8.70;4.30;;;0.30;99.90;;;;;;5058173;28;20041;-60
2024/01/17 01:02:50;;;;;;;13.55;4.47;;;0.20;99.90;;;;;;5040204;28;20044;-61
2024/01/17 01:05:16;;;;;;;12.27;4.55;;;0.30;99.90;;;;;;5056590;28;20049;-60
2024/01/17 01:07:41;;;;;;;12.25;4.60;;;0.10;99.90;;;;;;5040489;28;20052;-60
2024/01/17 01:10:07;;;;;;;8.55;4.63;;;0.30;99.90;;;;;;5058568;28;20075;-60
2024/01/17 01:12:33;;;;;;;9.70;4.45;;;0.00;99.90;;;;;;5058509;28;20038;-60
2024/01/17 01:14:59;;;;;;;11.20;4.75;;;0.10;99.90;;;;;;5056711;28;20056;-61
2024/01/17 01:17:24;;;;;;;11.77;5.35;;;-0.10;99.90;;;;;;5039923;28;20045;-60
2024/01/17 01:19:50;;;;;;;9.88;4.30;;;0.10;99.90;;;;;;5057760;28;20109;-60
2024/01/17 01:22:16;;;;;;;10.65;4.60;;;0.00;99.90;;;;;;5040097;28;20471;-60
2024/01/17 01:24:41;;;;;;;10.43;5.13;;;0.40;99.90;;;;;;5056319;28;20449;-60
2024/01/17 01:27:07;;;;;;;12.23;5.20;;;0.30;99.90;;;;;;5040009;28;20127;-60
2024/01/17 01:29:33;;;;;;;11.75;5.72;;;-0.10;99.90;;;;;;5058073;28;20041;-60
2024/01/17 01:31:58;;;;;;;12.00;4.53;;;0.30;99.90;;;;;;5039877;28;20053;-60
2024/01/17 01:34:24;;;;;;;11.50;6.35;;;0.10;99.90;;;;;;5057372;28;20459;-60
2024/01/17 01:36:50;;;;;;;10.27;5.15;;;-0.10;99.90;;;;;;5039737;28;20037;-59
2024/01/17 01:39:15;;;;;;;9.35;5.15;;;0.00;99.90;;;;;;5039991;28;20160;-60
2024/01/17 01:41:41;;;;;;;12.13;5.60;;;0.30;99.90;;;;;;5057730;28;20041;-60
2024/01/17 01:44:07;;;;;;;10.23;5.60;;;0.40;99.90;;;;;;5058342;28;20096;-60
2024/01/17 01:46:33;;;;;;;13.18;5.47;;;0.30;99.90;;;;;;5057838;28;20044;-60
2024/01/17 01:48:59;;;;;;;10.40;5.70;;;-0.10;99.90;;;;;;5057825;28;20077;-60
2024/01/17 01:51:27;;;;;;;11.48;5.85;;;0.30;99.90;;;;;;5057565;28;20089;-59
2024/01/17 01:54:01;;;;;;;11.18;5.22;;;0.20;99.90;;;;;;5039300;28;20053;-60
2024/01/17 01:56:30;;;;;;;9.25;5.18;;;0.20;99.90;;;;;;5060947;28;20256;-60
2024/01/17 01:58:57;;;;;;;11.23;5.05;;;0.00;99.90;;;;;;5043570;28;20095;-60
2024/01/17 02:01:25;;;;;;;12.88;6.60;;;0.20;99.90;;;;;;5061037;28;20049;-59
2024/01/17 02:03:53;;;;;;;11.43;5.20;;;-0.10;99.90;;;;;;5043483;28;20097;-59
2024/01/17 02:06:20;;;;;;;11.80;5.10;;;0.20;99.90;;;;;;5043259;28;20060;-60
2024/01/17 02:08:46;;;;;;;12.02;5.85;;;0.40;99.90;;;;;;5061232;28;20526;-60
2024/01/17 02:11:13;;;;;;;13.50;6.53;;;-0.10;99.90;;;;;;5061102;28;20060;-60
2024/01/17 02:13:40;;;;;;;14.73;5.60;;;0.00;99.90;;;;;;5060846;28;20053;-60
2024/01/17 02:16:06;;;;;;;14.38;5.93;;;-0.10;99.90;;;;;;5061344;28;20073;-60
2024/01/17 02:18:32;;;;;;;13.48;6.07;;;-0.10;99.90;;;;;;5061437;28;20045;-60
2024/01/17 02:20:57;;;;;;;13.35;6.70;;;0.00;99.90;;;;;;5061228;28;20080;-59
2024/01/17 02:23:28;;;;;;;13.13;5.97;;;0.20;99.90;;;;;;5060969;28;20093;-60
2024/01/17 02:25:55;;;;;;;12.43;5.97;;;-0.10;99.90;;;;;;5042676;28;20056;-60
2024/01/17 02:28:21;;;;;;;14.63;5.80;;;-0.10;99.90;;;;;;5060635;28;20071;-60
2024/01/17 02:30:47;;;;;;;10.90;5.55;;;-0.20;99.90;;;;;;5042767;28;20063;-60
2024/01/17 02:33:13;;;;;;;13.77;6.30;;;-0.20;99.90;;;;;;5060910;28;20044;-60
2024/01/17 02:35:39;;;;;;;16.52;7.10;;;0.00;99.90;;;;;;5060720;28;20103;-60
2024/01/17 02:38:05;;;;;;;11.07;6.45;;;0.10;99.90;;;;;;5043060;28;20037;-59
2024/01/17 02:40:31;;;;;;;13.75;6.95;;;0.00;99.90;;;;;;5060648;28;20573;-60
2024/01/17 02:42:56;;;;;;;15.05;6.75;;;-0.40;99.90;;;;;;5042545;28;20041;-60
2024/01/17 02:45:22;;;;;;;12.23;6.95;;;-0.10;99.90;;;;;;5060635;28;20044;-60
2024/01/17 02:47:48;;;;;;;12.82;7.15;;;-0.40;99.90;;;;;;5060512;28;20485;-60
2024/01/17 02:50:15;;;;;;;14.95;7.07;;;-0.30;99.90;;;;;;5059196;28;20037;-60
2024/01/17 02:52:49;;;;;;;13.20;6.90;;;-0.10;99.90;;;;;;5060657;28;20068;-59
2024/01/17 02:55:18;;;;;;;12.55;6.65;;;-0.30;99.90;;;;;;5060287;28;20043;-60
2024/01/17 02:57:45;;;;;;;13.88;6.63;;;0.10;99.90;;;;;;5059973;28;20055;-60
2024/01/17 03:00:11;;;;;;;14.20;7.55;;;-0.40;99.90;;;;;;5058771;28;20043;-59
2024/01/17 03:02:37;;;;;;;14.20;6.93;;;0.00;99.90;;;;;;5060003;28;20040;-60
2024/01/17 03:05:05;;;;;;;14.38;7.40;;;-0.30;99.90;;;;;;5059640;28;20085;-59
2024/01/17 03:07:31;;;;;;;14.38;7.25;;;0.10;99.90;;;;;;5058902;28;20060;-60
2024/01/17 03:09:57;;;;;;;15.35;7.30;;;-0.40;99.90;;;;;;5080323;28;20044;-59
2024/01/17 03:12:23;;;;;;;11.38;6.75;;;-0.30;99.90;;;;;;5080112;28;20045;-60
2024/01/17 03:14:49;;;;;;;14.48;7.95;;;-0.10;99.90;;;;;;5078761;28;20879;-60
2024/01/17 03:17:16;;;;;;;16.17;7.30;;;-0.10;99.90;;;;;;5079916;28;20081;-60
2024/01/17 03:19:46;;;;;;;15.20;7.30;;;-0.40;99.90;;;;;;5062137;28;20040;-60
2024/01/17 03:22:12;;;;;;;17.08;7.50;;;0.00;99.90;;;;;;5079928;28;20587;-59
2024/01/17 03:24:38;;;;;;;13.90;6.95;;;-0.50;99.90;;;;;;5079776;28;20123;-60
2024/01/17 03:27:05;;;;;;;14.07;6.63;;;-0.30;99.90;;;;;;5079854;28;20040;-60
2024/01/17 03:29:30;;;;;;;14.93;7.50;;;-0.20;99.90;;;;;;5079981;28;20052;-60
2024/01/17 03:31:56;;;;;;;13.75;7.43;;;-0.20;99.90;;;;;;5079873;28;20077;-61
2024/01/17 03:34:22;;;;;;;14.63;7.18;;;-0.20;99.90;;;;;;5079249;28;20045;-60
2024/01/17 03:36:47;;;;;;;14.85;7.20;;;-0.10;99.90;;;;;;5079621;28;20079;-60
2024/01/17 03:39:13;;;;;;;16.02;7.20;;;0.10;99.90;;;;;;5079307;28;20127;-60
2024/01/17 03:41:39;;;;;;;17.83;8.98;;;-0.50;99.90;;;;;;5079624;28;20042;-62
2024/01/17 03:44:05;;;;;;;12.18;6.93;;;0.10;99.90;;;;;;5079563;28;20074;-60
2024/01/17 03:46:31;;;;;;;14.63;7.55;;;0.10;99.90;;;;;;5045041;28;20044;-60
2024/01/17 03:48:57;;;;;;;16.23;7.65;;;0.10;99.90;;;;;;5079637;28;20070;-60
2024/01/17 03:51:22;;;;;;;12.15;6.95;;;-0.40;99.90;;;;;;5078984;28;20048;-60
2024/01/17 03:53:48;;;;;;;13.80;7.28;;;-0.30;99.90;;;;;;5078903;28;20045;-60
2024/01/17 03:56:14;;;;;;;14.35;7.28;;;-0.40;99.90;;;;;;5078939;28;20044;-60
2024/01/17 03:58:41;;;;;;;17.42;7.38;;;-0.40;99.90;;;;;;5061189;28;20044;-60
2024/01/17 04:01:10;;;;;;;15.20;7.95;;;-0.10;99.90;;;;;;5078994;28;20041;-61
2024/01/17 04:03:35;;;;;;;18.45;8.00;;;-0.50;99.90;;;;;;5079579;28;20078;-60
2024/01/17 04:06:02;;;;;;;16.52;8.48;;;-0.10;99.90;;;;;;5078889;28;20588;-60
2024/01/17 04:08:28;;;;;;;13.95;8.10;;;0.00;99.90;;;;;;5044019;28;20127;-60
2024/01/17 04:10:54;;;;;;;16.40;8.55;;;0.10;99.90;;;;;;5078575;28;20040;-60
2024/01/17 04:13:20;;;;;;;16.08;7.10;;;-0.30;99.90;;;;;;5078486;28;20045;-61
2024/01/17 04:15:45;;;;;;;14.52;8.25;;;-0.40;99.90;;;;;;5078581;28;20071;-60
2024/01/17 04:18:11;;;;;;;14.35;8.00;;;-0.50;99.90;;;;;;5060269;28;20045;-60
2024/01/17 04:20:37;;;;;;;18.02;8.02;;;0.10;99.90;;;;;;5077554;28;20041;-60
2024/01/17 04:23:06;;;;;;;12.52;7.70;;;0.10;99.90;;;;;;5078237;28;20614;-60
2024/01/17 04:25:32;;;;;;;13.30;8.05;;;-0.60;99.90;;;;;;5078697;28;20068;-60
2024/01/17 04:27:58;;;;;;;16.95;8.68;;;0.10;99.90;;;;;;5060242;28;20079;-60
2024/01/17 04:30:24;;;;;;;15.05;7.95;;;-0.50;99.90;;;;;;5043555;28;20511;-60
2024/01/17 04:32:49;;;;;;;17.70;8.20;;;0.10;99.90;;;;;;5043745;28;20067;-61
2024/01/17 04:35:21;;;;;;;14.45;8.45;;;0.10;99.90;;;;;;5076826;28;20127;-60
2024/01/17 04:37:47;;;;;;;16.15;8.60;;;0.10;99.90;;;;;;5076961;28;20063;-60
2024/01/17 04:40:13;;;;;;;14.82;7.82;;;-0.30;99.90;;;;;;5078483;28;20094;-60
2024/01/17 04:42:39;;;;;;;14.93;9.18;;;-0.50;99.90;;;;;;5078366;28;20047;-60
2024/01/17 04:45:05;;;;;;;17.27;9.25;;;-0.40;99.90;;;;;;5078203;28;20048;-61
2024/01/17 04:47:31;;;;;;;17.27;8.57;;;0.00;99.90;;;;;;5078299;28;20135;-60
2024/01/17 04:49:57;;;;;;;16.42;8.30;;;-0.10;99.90;;;;;;5077875;28;20051;-60
2024/01/17 04:52:23;;;;;;;15.07;7.43;;;-0.30;99.90;;;;;;5078197;28;20045;-60
2024/01/17 04:54:49;;;;;;;14.00;7.45;;;-0.40;99.90;;;;;;5077022;28;20056;-60
2024/01/17 04:57:15;;;;;;;17.90;8.23;;;-0.50;99.90;;;;;;5077988;28;20519;-60
2024/01/17 04:59:42;;;;;;;16.50;8.65;;;-0.40;99.90;;;;;;5043825;28;20041;-60
2024/01/17 05:02:08;;;;;;;16.05;8.57;;;-0.40;99.90;;;;;;5078170;28;20054;-61
2024/01/17 05:04:34;;;;;;;18.58;9.35;;;-0.60;99.90;;;;;;5059701;28;20108;-60
2024/01/17 05:06:59;;;;;;;15.48;8.07;;;-0.40;99.90;;;;;;5077707;28;20047;-60
2024/01/17 05:09:26;;;;;;;16.75;8.55;;;0.00;99.90;;;;;;5060047;28;20041;-60
2024/01/17 05:11:52;;;;;;;14.63;8.73;;;0.00;99.90;;;;;;5060303;28;20400;-60
2024/01/17 05:14:18;;;;;;;14.90;8.23;;;0.00;99.90;;;;;;5078158;28;20044;-60
2024/01/17 05:16:43;;;;;;;16.00;8.48;;;-0.40;99.90;;;;;;5043754;28;20118;-60
2024/01/17 05:19:09;;;;;;;17.13;9.10;;;0.00;99.90;;;;;;5077812;28;20071;-60
2024/01/17 05:21:35;;;;;;;17.50;9.27;;;-0.50;99.90;;;;;;5076343;28;20053;-60
2024/01/17 05:24:00;;;;;;;15.90;8.68;;;-0.10;99.90;;;;;;5059522;28;20127;-60
2024/01/17 05:26:26;;;;;;;20.20;10.27;;;-0.10;99.90;;;;;;5076404;28;20059;-61
2024/01/17 05:28:52;;;;;;;19.33;9.68;;;-0.10;99.90;;;;;;5079233;28;20044;-62
2024/01/17 05:31:17;;;;;;;17.90;9.57;;;-0.70;99.90;;;;;;5047152;28;20119;-60
2024/01/17 05:33:44;;;;;;;16.38;8.00;;;-0.40;99.90;;;;;;5081939;28;20056;-60
2024/01/17 05:36:10;;;;;;;19.83;9.77;;;-0.70;99.90;;;;;;5081263;28;20488;-61
2024/01/17 05:38:37;;;;;;;16.83;9.00;;;-0.10;99.90;;;;;;5081953;28;20052;-60
2024/01/17 05:41:03;;;;;;;17.58;8.85;;;-0.20;99.90;;;;;;5063443;28;20045;-60
2024/01/17 05:43:30;;;;;;;15.40;8.48;;;-0.80;99.90;;;;;;5081649;28;20058;-60
2024/01/17 05:45:57;;;;;;;16.88;9.40;;;-0.50;99.90;;;;;;5081579;28;20122;-61
2024/01/17 05:48:26;;;;;;;18.10;8.25;;;-0.40;99.90;;;;;;5063539;28;20041;-60
2024/01/17 05:50:52;;;;;;;18.10;9.13;;;-0.50;99.90;;;;;;5081569;28;20053;-59
2024/01/17 05:53:18;;;;;;;18.33;9.77;;;-0.30;99.90;;;;;;5063628;28;20048;-59
2024/01/17 05:55:44;;;;;;;16.38;8.60;;;-0.40;99.90;;;;;;5080757;28;20040;-61
2024/01/17 05:58:10;;;;;;;15.75;8.80;;;-0.50;99.90;;;;;;5045903;28;20100;-60
2024/01/17 06:00:35;;;;;;;18.10;9.82;;;-0.70;99.90;;;;;;5080041;28;20036;-61
2024/01/17 06:03:01;;;;;;;17.15;8.65;;;-0.40;99.90;;;;;;5081108;28;20101;-60
2024/01/17 06:05:27;;;;;;;16.27;8.98;;;-1.00;99.90;;;;;;5046701;28;20071;-61
2024/01/17 06:07:52;;;;;;;16.75;9.05;;;-0.50;99.90;;;;;;5063160;28;20041;-60
2024/01/17 06:10:18;;;;;;;15.45;8.02;;;-0.60;99.90;;;;;;5081638;28;20044;-60
2024/01/17 06:12:44;;;;;;;16.88;9.75;;;-0.50;99.90;;;;;;5080946;28;20100;-59
2024/01/17 06:15:11;;;;;;;15.15;7.90;;;-0.90;99.90;;;;;;5081112;28;20075;-62
2024/01/17 06:17:37;;;;;;;16.58;8.90;;;-0.90;99.90;;;;;;5081178;28;20092;-60
2024/01/17 06:20:03;;;;;;;13.98;8.20;;;-0.60;99.90;;;;;;5046327;28;20064;-59
2024/01/17 06:22:29;;;;;;;15.43;9.07;;;-0.70;99.90;;;;;;5063330;28;20044;-60
2024/01/17 06:24:55;;;;;;;15.68;8.90;;;-0.60;99.90;;;;;;5081275;28;20036;-61
2024/01/17 06:27:22;;;;;;;16.58;9.77;;;-1.20;99.90;;;;;;5081140;28;20068;-59
2024/01/17 06:29:47;;;;;;;16.95;9.35;;;-1.00;99.90;;;;;;5080759;28;20916;-60
2024/01/17 06:32:13;;;;;;;16.65;9.10;;;-1.30;99.90;;;;;;5062578;28;20033;-60
2024/01/17 06:34:39;;;;;;;17.42;8.88;;;-0.70;99.90;;;;;;5080626;28;20061;-61
2024/01/17 06:37:05;;;;;;;17.38;9.25;;;-1.00;99.90;;;;;;5080398;28;20571;-61
2024/01/17 06:39:32;;;;;;;17.48;9.10;;;-0.80;99.90;;;;;;5079216;28;20047;-61
2024/01/17 06:41:58;;;;;;;17.50;9.07;;;-1.20;99.90;;;;;;5080195;28;20072;-60
2024/01/17 06:44:26;;;;;;;18.77;8.70;;;-1.00;99.90;;;;;;5080961;28;20048;-60
2024/01/17 06:46:51;;;;;;;20.60;9.27;;;-0.80;99.90;;;;;;5080087;28;20088;-60
2024/01/17 06:49:17;;;;;;;20.98;9.75;;;-1.30;99.90;;;;;;5062416;28;20041;-61
2024/01/17 06:51:43;;;;;;;14.07;8.60;;;-0.80;99.90;;;;;;5060538;28;20042;-60
2024/01/17 06:54:09;;;;;;;16.52;8.68;;;-0.80;99.90;;;;;;5076305;28;20037;-58
2024/01/17 06:56:36;;;;;;;15.68;8.60;;;-1.40;99.90;;;;;;5058389;28;20076;-60
2024/01/17 06:59:02;;;;;;;20.13;9.80;;;-0.90;99.90;;;;;;5076181;28;20076;-60
2024/01/17 07:01:28;;;;;;;20.58;9.82;;;-0.90;99.90;;;;;;5076541;28;20056;-60
2024/01/17 07:03:54;;;;;;;14.85;9.18;;;-1.00;99.90;;;;;;5076090;28;20048;-59
2024/01/17 07:06:20;;;;;;;19.45;10.70;;;-1.20;99.90;;;;;;5076025;28;20493;-59
2024/01/17 07:08:46;;;;;;;16.70;8.70;;;-1.20;99.90;;;;;;5076134;28;20536;-60
2024/01/17 07:11:11;;;;;;;17.83;9.93;;;-0.90;99.90;;;;;;5075894;28;20384;-60
2024/01/17 07:13:38;;;;;;;15.15;8.52;;;-1.30;99.90;;;;;;5074251;28;20059;-60
2024/01/17 07:16:05;;;;;;;17.15;9.82;;;-1.20;99.90;;;;;;5057531;28;20094;-59
2024/01/17 07:18:31;;;;;;;16.27;9.05;;;-1.40;99.90;;;;;;5075972;28;20377;-60
2024/01/17 07:20:56;;;;;;;15.77;9.02;;;-1.50;99.90;;;;;;5075690;28;20045;-60
2024/01/17 07:23:22;;;;;;;17.45;8.60;;;-0.90;99.90;;;;;;5075583;28;20037;-60
2024/01/17 07:25:48;;;;;;;17.98;9.82;;;-1.30;99.90;;;;;;5057317;28;20139;-60
2024/01/17 07:28:14;;;;;;;14.43;8.68;;;-1.00;99.90;;;;;;5074954;28;20044;-60
2024/01/17 07:30:41;;;;;;;18.25;9.57;;;-1.30;99.90;;;;;;5075034;28;20078;-60
2024/01/17 07:33:07;;;;;;;15.68;9.05;;;-1.10;99.90;;;;;;5057824;28;20044;-59
2024/01/17 07:35:33;;;;;;;15.07;8.63;;;-1.30;99.90;;;;;;5040582;28;20052;-60
2024/01/17 07:37:59;;;;;;;14.82;8.48;;;-1.40;99.90;;;;;;5040964;28;20199;-60
2024/01/17 07:40:25;;;;;;;18.38;9.43;;;-0.90;99.90;;;;;;5075019;28;20063;-60
2024/01/17 07:42:51;;;;;;;14.93;8.85;;;-0.90;99.90;;;;;;5075185;28;20520;-60
2024/01/17 07:45:17;;;;;;;16.50;8.35;;;-1.10;99.90;;;;;;5075008;28;20080;-61
2024/01/17 07:47:43;;;;;;;17.45;8.80;;;-1.50;99.90;;;;;;5074875;28;20090;-60
2024/01/17 07:50:09;;;;;;;15.00;8.73;;;-1.40;99.90;;;;;;5057429;28;20068;-60
2024/01/17 07:52:35;;;;;;;16.17;8.07;;;-1.50;99.90;;;;;;5039988;28;20056;-60
2024/01/17 07:55:01;;;;;;;13.77;7.60;;;-1.30;99.90;;;;;;5075673;28;20032;-59
2024/01/17 07:57:26;;;;;;;14.98;8.40;;;-0.90;99.90;;;;;;5075574;28;20106;-60
2024/01/17 07:59:52;;;;;;;16.13;8.52;;;-1.00;99.90;;;;;;5075265;28;20570;-60
2024/01/17 08:02:18;;;;;;;17.20;8.02;;;-1.50;99.90;;;;;;5074492;28;20063;-59
2024/01/17 08:04:43;;;;;;;18.80;8.00;;;-1.00;99.90;;;;;;5040024;28;20108;-60
2024/01/17 08:07:09;;;;;;;14.82;7.90;;;-1.10;99.90;;;;;;5057249;28;20532;-60
2024/01/17 08:09:35;;;;;;;16.65;8.45;;;-1.10;99.90;;;;;;5040598;28;20317;-60
2024/01/17 08:12:01;;;;;;;13.82;7.45;;;-1.20;99.90;;;;;;5074860;28;20129;-60
2024/01/17 08:14:26;;;;;;;16.00;8.18;;;-1.50;99.90;;;;;;5057186;28;20067;-60
2024/01/17 08:16:53;;;;;;;15.48;8.10;;;-1.20;99.90;;;;;;5074759;28;20045;-60
2024/01/17 08:19:19;;;;;;;20.83;7.80;;;-1.20;99.90;;;;;;5075190;28;20037;-60
2024/01/17 08:21:46;;;;;;;12.65;7.30;;;-1.50;99.90;;;;;;5056727;28;20056;-61
2024/01/17 08:24:13;;;;;;;16.55;8.13;;;-1.50;99.90;;;;;;5040405;28;20048;-60
2024/01/17 08:26:39;;;;;;;15.75;7.88;;;-0.90;99.90;;;;;;5074782;28;20040;-60
2024/01/17 08:29:05;;;;;;;18.00;8.52;;;-1.00;99.90;;;;;;5056934;28;20052;-61
2024/01/17 08:31:30;;;;;;;14.95;7.72;;;-1.30;99.90;;;;;;5075070;28;20052;-60
2024/01/17 08:33:57;;;;;;;16.45;8.90;;;-1.00;99.90;;;;;;5074859;28;20045;-60
2024/01/17 08:36:23;;;;;;;12.65;7.82;;;-1.30;99.90;;;;;;5074653;28;20044;-60
2024/01/17 08:38:49;;;;;;;15.18;8.73;;;-0.90;99.90;;;;;;5074661;28;20084;-60
2024/01/17 08:41:19;;;;;;;15.57;8.57;;;-1.50;99.90;;;;;;5055721;28;20059;-60
2024/01/17 08:43:45;;;;;;;16.42;9.70;;;-1.10;99.90;;;;;;5074826;28;20566;-59
2024/01/17 08:46:13;;;;;;;18.90;7.78;;;-1.00;99.90;;;;;;5056955;28;20048;-60
2024/01/17 08:48:40;;;;;;;16.08;8.93;;;-1.30;99.90;;;;;;5075450;28;20055;-60
2024/01/17 08:51:07;;;;;;;15.95;8.63;;;-1.10;99.90;;;;;;5073852;28;20048;-60
2024/01/17 08:53:33;;;;;;;15.18;8.40;;;-1.10;99.90;;;;;;5056240;28;20056;-60
2024/01/17 08:56:01;;;;;;;16.80;8.57;;;-1.30;99.90;;;;;;5039627;28;20043;-60
2024/01/17 08:58:26;;;;;;;15.15;8.35;;;-0.80;99.90;;;;;;5074526;28;20599;-60
2024/01/17 09:00:52;;;;;;;15.00;8.23;;;-0.80;99.90;;;;;;5074220;28;20044;-60
2024/01/17 09:03:18;;;;;;;16.42;7.95;;;-0.70;99.90;;;;;;5075206;28;20049;-60
2024/01/17 09:05:44;;;;;;;14.98;7.50;;;-1.10;99.90;;;;;;5060559;28;20063;-60
2024/01/17 09:08:10;;;;;;;16.33;8.10;;;-0.80;99.90;;;;;;5078774;28;20096;-60
2024/01/17 09:10:35;;;;;;;13.82;8.20;;;-0.70;99.90;;;;;;5060137;28;20040;-60
2024/01/17 09:13:01;;;;;;;16.25;8.25;;;-1.10;99.90;;;;;;5078381;28;20100;-60
2024/01/17 09:15:27;;;;;;;14.05;7.68;;;-1.10;99.90;;;;;;5078841;28;20076;-59
2024/01/17 09:17:53;;;;;;;13.68;8.05;;;-1.10;99.90;;;;;;5060351;28;20044;-60
2024/01/17 09:20:18;;;;;;;14.80;8.60;;;-1.00;99.90;;;;;;5077459;28;20474;-61
2024/01/17 09:22:44;;;;;;;14.18;7.57;;;-0.90;99.90;;;;;;5060546;28;20045;-60
2024/01/17 09:25:10;;;;;;;17.85;8.63;;;-0.50;99.90;;;;;;5078418;28;20112;-58
2024/01/17 09:27:36;;;;;;;15.60;7.80;;;-0.90;99.90;;;;;;5060197;28;20036;-60
2024/01/17 09:30:02;;;;;;;12.65;6.68;;;-1.00;99.90;;;;;;5076282;28;20075;-60
2024/01/17 09:32:28;;;;;;;15.35;7.68;;;-0.70;99.90;;;;;;5059667;28;20059;-59
2024/01/17 09:34:54;;;;;;;14.23;7.60;;;-0.60;99.90;;;;;;5078139;28;20036;-59
2024/01/17 09:37:20;;;;;;;14.32;7.35;;;-0.50;99.90;;;;;;5040312;28;20067;-59
2024/01/17 09:39:45;;;;;;;18.55;7.90;;;-0.50;99.90;;;;;;5081536;28;20067;-60
2024/01/17 09:42:14;;;;;;;12.77;7.50;;;-0.60;99.90;;;;;;5081718;28;20037;-60
2024/01/17 09:44:40;;;;;;;14.73;7.38;;;-0.40;99.90;;;;;;5081440;28;20058;-60
2024/01/17 09:47:08;;;;;;;12.98;7.10;;;-0.50;99.90;;;;;;5081065;28;20112;-60
2024/01/17 09:49:35;;;;;;;15.00;6.63;;;-0.40;99.90;;;;;;5079832;28;20044;-60
2024/01/17 09:52:06;;;;;;;14.18;7.20;;;-0.40;99.90;;;;;;5081511;28;20045;-60
2024/01/17 09:54:40;;;;;;;12.82;6.53;;;-0.50;99.90;;;;;;5081704;28;20048;-60
2024/01/17 09:57:09;;;;;;;14.15;7.15;;;-0.30;99.90;;;;;;5081536;28;20044;-60
2024/01/17 09:59:49;;;;;;;15.90;7.45;;;-0.70;99.90;;;;;;5064156;28;20048;-60
2024/01/17 10:02:16;;;;;;;14.02;7.72;;;-0.60;99.90;;;;;;5081217;28;20157;-60
2024/01/17 10:04:45;;;;;;;14.95;7.10;;;-0.50;99.90;;;;;;5062879;28;20127;-60
2024/01/17 10:07:12;;;;;;;15.55;7.72;;;-0.30;99.90;;;;;;5063163;28;20063;-60
2024/01/17 10:09:38;;;;;;;12.18;7.28;;;-0.30;99.90;;;;;;5081383;28;20036;-60
2024/01/17 10:12:04;;;;;;;19.17;8.23;;;-0.20;99.90;;;;;;5081573;28;20040;-60
2024/01/17 10:14:30;;;;;;;13.15;7.45;;;-0.50;99.90;;;;;;5080557;28;20056;-61
2024/01/17 10:16:57;;;;;;;14.93;7.72;;;-0.50;99.90;;;;;;5079285;28;20136;-58
2024/01/17 10:19:26;;;;;;;14.35;7.63;;;-0.40;99.90;;;;;;5080980;28;20468;-61
2024/01/17 10:21:52;;;;;;;16.35;8.25;;;-0.60;99.90;;;;;;5063116;28;20115;-60
2024/01/17 10:24:19;;;;;;;13.82;7.82;;;-0.30;99.90;;;;;;5077627;28;20516;-60
2024/01/17 10:26:45;;;;;;;14.02;8.13;;;-0.50;99.90;;;;;;5079041;28;20100;-60
2024/01/17 10:29:11;;;;;;;13.85;6.95;;;-0.60;99.90;;;;;;5079251;28;20105;-60
2024/01/17 10:31:40;;;;;;;14.07;7.15;;;-0.40;99.90;;;;;;5079296;28;20044;-60
2024/01/17 10:34:07;;;;;;;12.95;7.18;;;-0.30;99.90;;;;;;5079219;28;20048;-60
2024/01/17 10:36:34;;;;;;;15.13;7.50;;;-0.30;99.90;;;;;;5077412;28;20182;-60
2024/01/17 10:39:04;;;;;;;11.43;6.85;;;-0.20;99.90;;;;;;5062111;28;20189;-60
2024/01/17 10:41:31;;;;;;;16.70;7.78;;;-0.20;99.90;;;;;;5062698;28;20044;-61
2024/01/17 10:43:57;;;;;;;13.18;7.30;;;-0.50;99.90;;;;;;5081146;28;20448;-60
2024/01/17 10:46:24;;;;;;;11.77;5.90;;;-0.40;99.90;;;;;;5080631;28;20043;-59
2024/01/17 10:48:50;;;;;;;13.50;7.00;;;-0.10;99.90;;;;;;5081025;28;20208;-60
2024/01/17 10:51:21;;;;;;;13.05;7.05;;;-0.40;99.90;;;;;;5080682;28;20180;-61
2024/01/17 10:54:06;;;;;;;13.15;6.25;;;-0.30;99.90;;;;;;5080656;28;20096;-61
2024/01/17 10:56:36;;;;;;;13.93;7.05;;;-0.20;99.90;;;;;;5080577;28;20049;-60
2024/01/17 10:59:03;;;;;;;12.48;6.93;;;-0.50;99.90;;;;;;5080654;28;20040;-60
2024/01/17 11:01:37;;;;;;;13.82;7.15;;;0.20;99.90;;;;;;5062778;28;20727;-60
2024/01/17 11:04:11;;;;;;;12.07;6.70;;;-0.10;99.90;;;;;;5062277;28;20127;-61
2024/01/17 11:06:37;;;;;;;11.75;6.22;;;-0.20;99.90;;;;;;5062044;28;20090;-60
2024/01/17 11:09:06;;;;;;;13.27;6.63;;;-0.20;99.90;;;;;;5080245;28;20049;-60
2024/01/17 11:11:33;;;;;;;11.05;6.45;;;-0.30;99.90;;;;;;5079669;28;20682;-61
2024/01/17 11:14:00;;;;;;;11.52;6.40;;;-0.20;99.90;;;;;;5079992;28;20057;-60
2024/01/17 11:16:27;;;;;;;13.88;6.63;;;-0.40;99.90;;;;;;5080226;28;20045;-60
2024/01/17 11:18:56;;;;;;;13.15;6.43;;;0.00;99.90;;;;;;5062235;28;20071;-60
2024/01/17 11:21:23;;;;;;;14.77;6.35;;;-0.30;99.90;;;;;;5079716;28;20036;-60
2024/01/17 11:24:27;;;;;;;12.60;6.30;;;-0.30;99.90;;;;;;5079328;28;20052;-60
2024/01/17 11:27:17;;;;;;;15.00;6.10;;;-0.50;99.90;;;;;;5079502;28;20560;-60
2024/01/17 11:30:09;;;;;;;12.90;6.32;;;-0.50;99.90;;;;;;5061602;28;20040;-60
2024/01/17 11:32:55;;;;;;;12.07;5.90;;;-0.20;99.90;;;;;;5061644;28;20556;-60
2024/01/17 11:35:43;;;;;;;11.65;6.07;;;-0.20;99.90;;;;;;5061346;28;20048;-60
2024/01/17 11:38:33;;;;;;;14.20;7.30;;;-0.50;99.90;;;;;;5044863;28;20044;-60
2024/01/17 11:41:06;;;;;;;12.63;6.45;;;-0.20;99.90;;;;;;5071706;28;20131;-60
2024/01/17 11:43:41;;;;;;;15.27;6.78;;;-0.30;99.90;;;;;;5079563;28;20120;-60
2024/01/17 11:46:10;;;;;;;13.65;7.05;;;-0.60;99.90;;;;;;5079466;28;20053;-60
2024/01/17 11:48:40;;;;;;;18.20;7.15;;;-0.20;99.90;;;;;;5045038;28;20044;-59
2024/01/17 11:51:14;;;;;;;17.67;7.40;;;-0.40;99.90;;;;;;5061389;28;20074;-59
2024/01/17 11:53:48;;;;;;;15.50;7.05;;;-0.10;99.90;;;;;;5079459;28;20472;-60
2024/01/17 11:56:15;;;;;;;14.43;6.80;;;-0.60;99.90;;;;;;5079016;28;20377;-60
2024/01/17 11:58:51;;;;;;;15.48;6.97;;;-0.50;99.90;;;;;;5079326;28;20120;-60
2024/01/17 12:01:38;;;;;;;15.20;7.88;;;-0.30;99.90;;;;;;5061551;28;20123;-59
2024/01/17 12:04:19;;;;;;;14.10;6.60;;;-0.70;99.90;;;;;;5078890;28;20048;-60
2024/01/17 12:06:52;;;;;;;13.85;6.80;;;0.00;99.90;;;;;;5078788;28;20036;-60
2024/01/17 12:09:18;;;;;;;15.43;7.07;;;-0.20;99.90;;;;;;5078946;28;20056;-60
2024/01/17 12:11:48;;;;;;;14.88;8.40;;;0.00;99.90;;;;;;5078868;28;20052;-60
2024/01/17 12:14:14;;;;;;;15.23;7.53;;;0.10;99.90;;;;;;5061103;28;20470;-60
2024/01/17 12:16:40;;;;;;;12.23;6.82;;;-0.10;99.90;;;;;;5079035;28;20447;-60
2024/01/17 12:19:06;;;;;;;15.07;7.63;;;0.20;99.90;;;;;;5078565;28;20092;-60
2024/01/17 12:21:32;;;;;;;14.15;6.80;;;0.10;99.90;;;;;;5078264;28;20150;-60
2024/01/17 12:23:58;;;;;;;15.77;7.35;;;0.30;99.90;;;;;;5044230;28;20047;-60
2024/01/17 12:26:24;;;;;;;16.83;7.95;;;-0.10;99.90;;;;;;5060493;28;20079;-60
2024/01/17 12:28:49;;;;;;;13.60;7.85;;;0.20;99.90;;;;;;5078826;28;20040;-60
2024/01/17 12:31:16;;;;;;;16.92;7.68;;;0.10;99.90;;;;;;5077461;28;20048;-60
2024/01/17 12:33:42;;;;;;;13.07;7.65;;;-0.40;99.90;;;;;;5043928;28;20044;-60
2024/01/17 12:36:09;;;;;;;12.45;6.85;;;-0.10;99.90;;;;;;5078488;28;20045;-60
2024/01/17 12:38:36;;;;;;;17.17;8.38;;;0.30;99.90;;;;;;5077836;28;20059;-60
2024/01/17 12:41:04;;;;;;;13.68;7.20;;;-0.20;99.90;;;;;;5078175;28;20040;-60